sensor_id;sensor_type;location;lat;lon;timestamp;temperature;humidity
40153;DHT22;26371;56.992;23.912;2023-03-01T00:01:47;1.60;99.90
40153;DHT22;26371;56.992;23.912;2023-03-01T00:04:15;1.50;99.90
40153;DHT22;26371;56.992;23.912;2023-03-01T00:06:45;1.60;99.90
40153;DHT22;26371;56.992;23.912;2023-03-01T00:09:14;1.60;99.90
40153;DHT22;26371;56.992;23.912;2023-03-01T00:11:45;1.60;99.90
40153;DHT22;26371;56.992;23.912;2023-03-01T00:14:13;1.50;99.90
40153;DHT22;26371;56.992;23.912;2023-03-01T00:16:43;1.60;99.90
40153;DHT22;26371;56.992;23.912;2023-03-01T00:19:13;1.60;99.90
40153;DHT22;26371;56.992;23.912;2023-03-01T00:21:43;1.50;99.90
40153;DHT22;26371;56.992;23.912;2023-03-01T00:24:14;1.50;99.90
40153;DHT22;26371;56.992;23.912;2023-03-01T00:26:44;1.50;99.90
40153;DHT22;26371;56.992;23.912;2023-03-01T00:29:13;1.50;99.90
40153;DHT22;26371;56.992;23.912;2023-03-01T00:31:42;1.40;99.90
40153;DHT22;26371;56.992;23.912;2023-03-01T00:34:10;1.40;99.90
40153;DHT22;26371;56.992;23.912;2023-03-01T00:36:39;1.40;99.90
40153;DHT22;26371;56.992;23.912;2023-03-01T00:39:11;1.40;99.90
40153;DHT22;26371;56.992;23.912;2023-03-01T00:41:42;1.30;99.90
40153;DHT22;26371;56.992;23.912;2023-03-01T00:44:11;1.30;99.90
40153;DHT22;26371;56.992;23.912;2023-03-01T00:46:40;1.40;99.90
40153;DHT22;26371;56.992;23.912;2023-03-01T00:49:08;1.30;99.90
40153;DHT22;26371;56.992;23.912;2023-03-01T00:51:37;1.30;99.90
40153;DHT22;26371;56.992;23.912;2023-03-01T00:54:07;1.30;99.90
40153;DHT22;26371;56.992;23.912;2023-03-01T00:56:36;1.30;99.90
40153;DHT22;26371;56.992;23.912;2023-03-01T00:59:06;1.30;99.90
40153;DHT22;26371;56.992;23.912;2023-03-01T01:01:35;1.30;99.90
40153;DHT22;26371;56.992;23.912;2023-03-01T01:04:08;1.20;99.90
40153;DHT22;26371;56.992;23.912;2023-03-01T01:06:38;1.20;99.90
40153;DHT22;26371;56.992;23.912;2023-03-01T01:09:11;1.30;99.90
40153;DHT22;26371;56.992;23.912;2023-03-01T01:11:44;1.20;99.90
40153;DHT22;26371;56.992;23.912;2023-03-01T01:14:15;1.30;99.90
40153;DHT22;26371;56.992;23.912;2023-03-01T01:16:46;1.20;99.90
40153;DHT22;26371;56.992;23.912;2023-03-01T01:19:15;1.20;99.90
40153;DHT22;26371;56.992;23.912;2023-03-01T01:21:43;1.30;99.90
40153;DHT22;26371;56.992;23.912;2023-03-01T01:24:12;1.30;99.90
40153;DHT22;26371;56.992;23.912;2023-03-01T01:26:41;1.30;99.90
40153;DHT22;26371;56.992;23.912;2023-03-01T01:29:10;1.30;99.90
40153;DHT22;26371;56.992;23.912;2023-03-01T01:31:41;1.30;99.90
40153;DHT22;26371;56.992;23.912;2023-03-01T01:34:14;1.30;99.90
40153;DHT22;26371;56.992;23.912;2023-03-01T01:36:46;1.30;99.90
40153;DHT22;26371;56.992;23.912;2023-03-01T01:39:15;1.30;99.90
40153;DHT22;26371;56.992;23.912;2023-03-01T01:41:44;1.30;99.90
40153;DHT22;26371;56.992;23.912;2023-03-01T01:44:16;1.30;99.90
40153;DHT22;26371;56.992;23.912;2023-03-01T01:46:49;1.20;99.90
40153;DHT22;26371;56.992;23.912;2023-03-01T01:49:29;1.20;99.90
40153;DHT22;26371;56.992;23.912;2023-03-01T01:52:09;1.20;99.90
40153;DHT22;26371;56.992;23.912;2023-03-01T01:54:43;1.20;99.90
40153;DHT22;26371;56.992;23.912;2023-03-01T01:57:16;1.20;99.90
40153;DHT22;26371;56.992;23.912;2023-03-01T01:59:50;1.20;99.90
40153;DHT22;26371;56.992;23.912;2023-03-01T02:02:20;1.20;99.90
40153;DHT22;26371;56.992;23.912;2023-03-01T02:04:54;1.20;99.90
40153;DHT22;26371;56.992;23.912;2023-03-01T02:07:26;1.20;99.90
40153;DHT22;26371;56.992;23.912;2023-03-01T02:09:54;1.20;99.90
40153;DHT22;26371;56.992;23.912;2023-03-01T02:12:24;1.30;99.90
40153;DHT22;26371;56.992;23.912;2023-03-01T02:14:54;1.30;99.90
40153;DHT22;26371;56.992;23.912;2023-03-01T02:17:24;1.30;99.90
40153;DHT22;26371;56.992;23.912;2023-03-01T02:20:04;1.30;99.90
40153;DHT22;26371;56.992;23.912;2023-03-01T02:22:36;1.20;99.90
40153;DHT22;26371;56.992;23.912;2023-03-01T02:25:20;1.20;99.90
40153;DHT22;26371;56.992;23.912;2023-03-01T02:27:53;1.20;99.90
40153;DHT22;26371;56.992;23.912;2023-03-01T02:30:28;1.20;99.90
40153;DHT22;26371;56.992;23.912;2023-03-01T02:32:59;1.20;99.90
40153;DHT22;26371;56.992;23.912;2023-03-01T02:35:32;1.20;99.90
40153;DHT22;26371;56.992;23.912;2023-03-01T02:38:02;1.20;99.90
40153;DHT22;26371;56.992;23.912;2023-03-01T02:40:33;1.20;99.90
40153;DHT22;26371;56.992;23.912;2023-03-01T02:43:04;1.20;99.90
40153;DHT22;26371;56.992;23.912;2023-03-01T02:45:37;1.20;99.90
40153;DHT22;26371;56.992;23.912;2023-03-01T02:48:11;1.20;99.90
40153;DHT22;26371;56.992;23.912;2023-03-01T02:50:53;1.20;99.90
40153;DHT22;26371;56.992;23.912;2023-03-01T02:53:32;1.20;99.90
40153;DHT22;26371;56.992;23.912;2023-03-01T02:56:01;1.20;99.90
40153;DHT22;26371;56.992;23.912;2023-03-01T02:58:34;1.20;99.90
40153;DHT22;26371;56.992;23.912;2023-03-01T03:01:14;1.20;99.90
40153;DHT22;26371;56.992;23.912;2023-03-01T03:03:43;1.20;99.90
40153;DHT22;26371;56.992;23.912;2023-03-01T03:06:12;1.30;99.90
40153;DHT22;26371;56.992;23.912;2023-03-01T03:08:41;1.30;99.90
40153;DHT22;26371;56.992;23.912;2023-03-01T03:11:11;1.30;99.90
40153;DHT22;26371;56.992;23.912;2023-03-01T03:13:39;1.40;99.90
40153;DHT22;26371;56.992;23.912;2023-03-01T03:16:17;1.40;99.90
40153;DHT22;26371;56.992;23.912;2023-03-01T03:18:46;1.40;99.90
40153;DHT22;26371;56.992;23.912;2023-03-01T03:21:15;1.50;99.90
40153;DHT22;26371;56.992;23.912;2023-03-01T03:23:44;1.50;99.90
40153;DHT22;26371;56.992;23.912;2023-03-01T03:26:13;1.50;99.90
40153;DHT22;26371;56.992;23.912;2023-03-01T03:28:42;1.50;99.90
40153;DHT22;26371;56.992;23.912;2023-03-01T03:31:10;1.50;99.90
40153;DHT22;26371;56.992;23.912;2023-03-01T03:33:40;1.50;99.90
40153;DHT22;26371;56.992;23.912;2023-03-01T03:36:09;1.50;99.90
40153;DHT22;26371;56.992;23.912;2023-03-01T03:38:40;1.60;99.90
40153;DHT22;26371;56.992;23.912;2023-03-01T03:41:08;1.50;99.90
40153;DHT22;26371;56.992;23.912;2023-03-01T03:43:38;1.50;99.90
40153;DHT22;26371;56.992;23.912;2023-03-01T03:46:07;1.50;99.90
40153;DHT22;26371;56.992;23.912;2023-03-01T03:48:38;1.60;99.90
40153;DHT22;26371;56.992;23.912;2023-03-01T03:51:10;1.60;99.90
40153;DHT22;26371;56.992;23.912;2023-03-01T03:53:39;1.60;99.90
40153;DHT22;26371;56.992;23.912;2023-03-01T03:56:08;1.60;99.90
40153;DHT22;26371;56.992;23.912;2023-03-01T03:58:37;1.60;99.90
40153;DHT22;26371;56.992;23.912;2023-03-01T04:01:05;1.70;99.90
40153;DHT22;26371;56.992;23.912;2023-03-01T04:03:34;1.70;99.90
40153;DHT22;26371;56.992;23.912;2023-03-01T04:06:03;1.70;99.90
40153;DHT22;26371;56.992;23.912;2023-03-01T04:08:34;1.70;99.90
40153;DHT22;26371;56.992;23.912;2023-03-01T04:11:03;1.70;99.90
40153;DHT22;26371;56.992;23.912;2023-03-01T04:13:46;1.60;99.90
40153;DHT22;26371;56.992;23.912;2023-03-01T04:16:14;1.70;99.90
40153;DHT22;26371;56.992;23.912;2023-03-01T04:18:44;1.70;99.90
40153;DHT22;26371;56.992;23.912;2023-03-01T04:21:13;1.70;99.90
40153;DHT22;26371;56.992;23.912;2023-03-01T04:23:43;1.70;99.90
40153;DHT22;26371;56.992;23.912;2023-03-01T04:26:11;1.70;99.90
40153;DHT22;26371;56.992;23.912;2023-03-01T04:28:41;1.70;99.90
40153;DHT22;26371;56.992;23.912;2023-03-01T04:31:14;1.70;99.90
40153;DHT22;26371;56.992;23.912;2023-03-01T04:33:46;1.70;99.90
40153;DHT22;26371;56.992;23.912;2023-03-01T04:36:16;1.70;99.90
40153;DHT22;26371;56.992;23.912;2023-03-01T04:38:47;1.70;99.90
40153;DHT22;26371;56.992;23.912;2023-03-01T04:41:17;1.70;99.90
40153;DHT22;26371;56.992;23.912;2023-03-01T04:43:46;1.80;99.90
40153;DHT22;26371;56.992;23.912;2023-03-01T04:46:16;1.80;99.90
40153;DHT22;26371;56.992;23.912;2023-03-01T04:48:45;1.80;99.90
40153;DHT22;26371;56.992;23.912;2023-03-01T04:51:15;1.80;99.90
40153;DHT22;26371;56.992;23.912;2023-03-01T04:53:46;1.80;99.90
40153;DHT22;26371;56.992;23.912;2023-03-01T04:56:15;1.80;99.90
40153;DHT22;26371;56.992;23.912;2023-03-01T04:58:45;1.80;99.90
40153;DHT22;26371;56.992;23.912;2023-03-01T05:01:17;1.80;99.90
40153;DHT22;26371;56.992;23.912;2023-03-01T05:03:48;1.70;99.90
40153;DHT22;26371;56.992;23.912;2023-03-01T05:06:18;1.70;99.90
40153;DHT22;26371;56.992;23.912;2023-03-01T05:08:49;1.70;99.90
40153;DHT22;26371;56.992;23.912;2023-03-01T05:11:17;1.70;99.90
40153;DHT22;26371;56.992;23.912;2023-03-01T05:13:46;1.70;99.90
40153;DHT22;26371;56.992;23.912;2023-03-01T05:16:15;1.70;99.90
40153;DHT22;26371;56.992;23.912;2023-03-01T05:18:44;1.80;99.90
40153;DHT22;26371;56.992;23.912;2023-03-01T05:21:14;1.70;99.90
40153;DHT22;26371;56.992;23.912;2023-03-01T05:23:44;1.80;99.90
40153;DHT22;26371;56.992;23.912;2023-03-01T05:26:15;1.80;99.90
40153;DHT22;26371;56.992;23.912;2023-03-01T05:28:59;1.80;99.90
40153;DHT22;26371;56.992;23.912;2023-03-01T05:31:28;1.70;99.90
40153;DHT22;26371;56.992;23.912;2023-03-01T05:33:58;1.70;99.90
40153;DHT22;26371;56.992;23.912;2023-03-01T05:36:26;1.70;99.90
40153;DHT22;26371;56.992;23.912;2023-03-01T05:38:55;1.70;99.90
40153;DHT22;26371;56.992;23.912;2023-03-01T05:41:25;1.60;99.90
40153;DHT22;26371;56.992;23.912;2023-03-01T05:43:54;1.60;99.90
40153;DHT22;26371;56.992;23.912;2023-03-01T05:46:22;1.70;99.90
40153;DHT22;26371;56.992;23.912;2023-03-01T05:48:51;1.60;99.90
40153;DHT22;26371;56.992;23.912;2023-03-01T05:51:20;1.60;99.90
40153;DHT22;26371;56.992;23.912;2023-03-01T05:53:49;1.60;99.90
40153;DHT22;26371;56.992;23.912;2023-03-01T05:56:17;1.60;99.90
40153;DHT22;26371;56.992;23.912;2023-03-01T05:58:48;1.60;99.90
40153;DHT22;26371;56.992;23.912;2023-03-01T06:01:16;1.60;99.90
40153;DHT22;26371;56.992;23.912;2023-03-01T06:03:45;1.60;99.90
40153;DHT22;26371;56.992;23.912;2023-03-01T06:06:14;1.60;99.90
40153;DHT22;26371;56.992;23.912;2023-03-01T06:08:42;1.60;99.90
40153;DHT22;26371;56.992;23.912;2023-03-01T06:11:11;1.60;99.90
40153;DHT22;26371;56.992;23.912;2023-03-01T06:13:41;1.60;99.90
40153;DHT22;26371;56.992;23.912;2023-03-01T06:16:11;1.70;99.90
40153;DHT22;26371;56.992;23.912;2023-03-01T06:18:40;1.60;99.90
40153;DHT22;26371;56.992;23.912;2023-03-01T06:21:09;1.70;99.90
40153;DHT22;26371;56.992;23.912;2023-03-01T06:23:37;1.70;99.90
40153;DHT22;26371;56.992;23.912;2023-03-01T06:26:07;1.70;99.90
40153;DHT22;26371;56.992;23.912;2023-03-01T06:28:36;1.70;99.90
40153;DHT22;26371;56.992;23.912;2023-03-01T06:31:04;1.80;99.90
40153;DHT22;26371;56.992;23.912;2023-03-01T06:33:37;1.80;99.90
40153;DHT22;26371;56.992;23.912;2023-03-01T06:36:06;1.80;99.90
40153;DHT22;26371;56.992;23.912;2023-03-01T06:38:36;1.90;99.90
40153;DHT22;26371;56.992;23.912;2023-03-01T06:41:05;1.90;99.90
40153;DHT22;26371;56.992;23.912;2023-03-01T06:43:33;1.90;99.90
40153;DHT22;26371;56.992;23.912;2023-03-01T06:46:04;2.00;99.90
40153;DHT22;26371;56.992;23.912;2023-03-01T06:48:34;2.00;99.90
40153;DHT22;26371;56.992;23.912;2023-03-01T06:51:04;2.00;99.90
40153;DHT22;26371;56.992;23.912;2023-03-01T06:53:33;2.00;99.90
40153;DHT22;26371;56.992;23.912;2023-03-01T06:56:01;2.00;99.90
40153;DHT22;26371;56.992;23.912;2023-03-01T06:58:30;2.00;99.90
40153;DHT22;26371;56.992;23.912;2023-03-01T07:00:59;2.00;99.90
40153;DHT22;26371;56.992;23.912;2023-03-01T07:03:28;2.00;99.90
40153;DHT22;26371;56.992;23.912;2023-03-01T07:05:56;2.00;99.90
40153;DHT22;26371;56.992;23.912;2023-03-01T07:08:26;2.00;99.90
40153;DHT22;26371;56.992;23.912;2023-03-01T07:10:55;2.00;99.90
40153;DHT22;26371;56.992;23.912;2023-03-01T07:13:24;2.00;99.90
40153;DHT22;26371;56.992;23.912;2023-03-01T07:15:53;2.10;99.90
40153;DHT22;26371;56.992;23.912;2023-03-01T07:18:22;2.10;99.90
40153;DHT22;26371;56.992;23.912;2023-03-01T07:20:51;2.10;99.90
40153;DHT22;26371;56.992;23.912;2023-03-01T07:23:20;2.10;99.90
40153;DHT22;26371;56.992;23.912;2023-03-01T07:25:53;2.20;99.90
40153;DHT22;26371;56.992;23.912;2023-03-01T07:28:23;2.20;99.90
40153;DHT22;26371;56.992;23.912;2023-03-01T07:30:51;2.20;99.90
40153;DHT22;26371;56.992;23.912;2023-03-01T07:33:20;2.20;99.90
40153;DHT22;26371;56.992;23.912;2023-03-01T07:35:56;2.20;99.90
40153;DHT22;26371;56.992;23.912;2023-03-01T07:38:25;2.20;99.90
40153;DHT22;26371;56.992;23.912;2023-03-01T07:40:57;2.30;99.90
40153;DHT22;26371;56.992;23.912;2023-03-01T07:43:27;2.30;99.90
40153;DHT22;26371;56.992;23.912;2023-03-01T07:45:59;2.30;99.90
40153;DHT22;26371;56.992;23.912;2023-03-01T07:48:28;2.40;99.90
40153;DHT22;26371;56.992;23.912;2023-03-01T07:50:58;2.40;99.90
40153;DHT22;26371;56.992;23.912;2023-03-01T07:53:27;2.40;99.90
40153;DHT22;26371;56.992;23.912;2023-03-01T07:56:05;2.40;99.90
40153;DHT22;26371;56.992;23.912;2023-03-01T07:58:34;2.50;99.90
40153;DHT22;26371;56.992;23.912;2023-03-01T08:01:04;2.50;99.90
40153;DHT22;26371;56.992;23.912;2023-03-01T08:03:34;2.50;99.90
40153;DHT22;26371;56.992;23.912;2023-03-01T08:06:05;2.40;99.90
40153;DHT22;26371;56.992;23.912;2023-03-01T08:08:35;2.50;99.90
40153;DHT22;26371;56.992;23.912;2023-03-01T08:11:06;2.50;99.90
40153;DHT22;26371;56.992;23.912;2023-03-01T08:13:35;2.50;99.90
40153;DHT22;26371;56.992;23.912;2023-03-01T08:16:06;2.80;99.90
40153;DHT22;26371;56.992;23.912;2023-03-01T08:18:35;2.80;99.90
40153;DHT22;26371;56.992;23.912;2023-03-01T08:21:04;2.90;99.90
40153;DHT22;26371;56.992;23.912;2023-03-01T08:23:33;2.80;99.90
40153;DHT22;26371;56.992;23.912;2023-03-01T08:26:09;2.90;99.90
40153;DHT22;26371;56.992;23.912;2023-03-01T08:28:38;2.70;99.90
40153;DHT22;26371;56.992;23.912;2023-03-01T08:31:14;2.80;99.90
40153;DHT22;26371;56.992;23.912;2023-03-01T08:33:43;2.80;99.90
40153;DHT22;26371;56.992;23.912;2023-03-01T08:36:12;3.10;99.90
40153;DHT22;26371;56.992;23.912;2023-03-01T08:38:42;3.10;99.90
40153;DHT22;26371;56.992;23.912;2023-03-01T08:41:11;3.10;99.90
40153;DHT22;26371;56.992;23.912;2023-03-01T08:43:40;3.10;99.90
40153;DHT22;26371;56.992;23.912;2023-03-01T08:46:09;3.10;99.90
40153;DHT22;26371;56.992;23.912;2023-03-01T08:48:38;3.10;99.90
40153;DHT22;26371;56.992;23.912;2023-03-01T08:51:14;3.10;99.90
40153;DHT22;26371;56.992;23.912;2023-03-01T08:53:44;3.10;99.90
40153;DHT22;26371;56.992;23.912;2023-03-01T08:56:15;3.10;99.90
40153;DHT22;26371;56.992;23.912;2023-03-01T08:58:44;3.20;99.90
40153;DHT22;26371;56.992;23.912;2023-03-01T09:01:15;3.00;99.90
40153;DHT22;26371;56.992;23.912;2023-03-01T09:03:44;3.00;99.90
40153;DHT22;26371;56.992;23.912;2023-03-01T09:06:13;3.00;99.90
40153;DHT22;26371;56.992;23.912;2023-03-01T09:08:45;3.00;99.90
40153;DHT22;26371;56.992;23.912;2023-03-01T09:11:17;3.00;99.90
40153;DHT22;26371;56.992;23.912;2023-03-01T09:13:46;3.00;99.90
40153;DHT22;26371;56.992;23.912;2023-03-01T09:16:17;3.10;99.90
40153;DHT22;26371;56.992;23.912;2023-03-01T09:18:49;3.10;99.90
40153;DHT22;26371;56.992;23.912;2023-03-01T09:21:20;3.10;99.90
40153;DHT22;26371;56.992;23.912;2023-03-01T09:24:08;3.10;99.90
40153;DHT22;26371;56.992;23.912;2023-03-01T09:26:41;3.20;99.90
40153;DHT22;26371;56.992;23.912;2023-03-01T09:29:10;3.10;99.90
40153;DHT22;26371;56.992;23.912;2023-03-01T09:31:39;3.10;99.90
40153;DHT22;26371;56.992;23.912;2023-03-01T09:34:08;3.10;99.90
40153;DHT22;26371;56.992;23.912;2023-03-01T09:36:37;3.10;99.90
40153;DHT22;26371;56.992;23.912;2023-03-01T09:39:05;3.10;99.90
40153;DHT22;26371;56.992;23.912;2023-03-01T09:41:46;3.20;99.90
40153;DHT22;26371;56.992;23.912;2023-03-01T09:44:29;3.20;99.90
40153;DHT22;26371;56.992;23.912;2023-03-01T09:46:59;3.20;99.90
40153;DHT22;26371;56.992;23.912;2023-03-01T09:49:30;3.20;99.90
40153;DHT22;26371;56.992;23.912;2023-03-01T09:52:03;3.20;99.90
40153;DHT22;26371;56.992;23.912;2023-03-01T09:54:32;3.20;99.90
40153;DHT22;26371;56.992;23.912;2023-03-01T09:57:11;3.20;99.90
40153;DHT22;26371;56.992;23.912;2023-03-01T09:59:55;3.20;99.90
40153;DHT22;26371;56.992;23.912;2023-03-01T10:02:29;3.10;99.90
40153;DHT22;26371;56.992;23.912;2023-03-01T10:05:05;3.20;99.90
40153;DHT22;26371;56.992;23.912;2023-03-01T10:12:47;3.30;99.90
40153;DHT22;26371;56.992;23.912;2023-03-01T10:15:19;3.50;99.90
40153;DHT22;26371;56.992;23.912;2023-03-01T10:17:52;3.50;99.90
40153;DHT22;26371;56.992;23.912;2023-03-01T10:20:26;3.50;99.90
40153;DHT22;26371;56.992;23.912;2023-03-01T10:22:55;3.40;99.90
40153;DHT22;26371;56.992;23.912;2023-03-01T10:25:35;3.30;99.90
40153;DHT22;26371;56.992;23.912;2023-03-01T10:28:12;3.30;99.90
40153;DHT22;26371;56.992;23.912;2023-03-01T10:30:44;3.60;99.90
40153;DHT22;26371;56.992;23.912;2023-03-01T10:33:16;3.60;99.90
40153;DHT22;26371;56.992;23.912;2023-03-01T10:35:46;3.70;99.90
40153;DHT22;26371;56.992;23.912;2023-03-01T10:38:16;3.60;99.90
40153;DHT22;26371;56.992;23.912;2023-03-01T10:40:53;3.60;99.90
40153;DHT22;26371;56.992;23.912;2023-03-01T10:43:24;3.50;99.90
40153;DHT22;26371;56.992;23.912;2023-03-01T10:45:53;3.50;99.90
40153;DHT22;26371;56.992;23.912;2023-03-01T10:48:23;3.50;99.90
40153;DHT22;26371;56.992;23.912;2023-03-01T10:51:06;3.40;99.90
40153;DHT22;26371;56.992;23.912;2023-03-01T10:53:37;3.40;99.90
40153;DHT22;26371;56.992;23.912;2023-03-01T10:56:08;3.50;99.90
40153;DHT22;26371;56.992;23.912;2023-03-01T10:58:41;3.50;99.90
40153;DHT22;26371;56.992;23.912;2023-03-01T11:01:28;3.50;99.90
40153;DHT22;26371;56.992;23.912;2023-03-01T11:04:10;3.50;99.90
40153;DHT22;26371;56.992;23.912;2023-03-01T11:06:41;3.60;99.90
40153;DHT22;26371;56.992;23.912;2023-03-01T11:09:15;3.60;99.90
40153;DHT22;26371;56.992;23.912;2023-03-01T11:11:44;3.50;99.90
40153;DHT22;26371;56.992;23.912;2023-03-01T11:14:16;3.80;99.90
40153;DHT22;26371;56.992;23.912;2023-03-01T11:17:01;3.70;99.90
40153;DHT22;26371;56.992;23.912;2023-03-01T11:19:31;3.50;99.90
40153;DHT22;26371;56.992;23.912;2023-03-01T11:22:03;3.50;99.90
40153;DHT22;26371;56.992;23.912;2023-03-01T11:24:38;3.50;99.90
40153;DHT22;26371;56.992;23.912;2023-03-01T11:27:17;3.50;99.90
40153;DHT22;26371;56.992;23.912;2023-03-01T11:29:52;3.50;99.90
40153;DHT22;26371;56.992;23.912;2023-03-01T11:32:25;3.50;99.90
40153;DHT22;26371;56.992;23.912;2023-03-01T11:34:58;3.50;99.90
40153;DHT22;26371;56.992;23.912;2023-03-01T11:37:35;3.40;99.90
40153;DHT22;26371;56.992;23.912;2023-03-01T11:40:13;3.50;99.90
40153;DHT22;26371;56.992;23.912;2023-03-01T11:42:53;3.40;99.90
40153;DHT22;26371;56.992;23.912;2023-03-01T11:45:30;3.40;99.90
40153;DHT22;26371;56.992;23.912;2023-03-01T11:48:13;3.40;99.90
40153;DHT22;26371;56.992;23.912;2023-03-01T11:50:47;3.40;99.90
40153;DHT22;26371;56.992;23.912;2023-03-01T11:53:38;3.40;99.90
40153;DHT22;26371;56.992;23.912;2023-03-01T11:56:16;3.30;99.90
40153;DHT22;26371;56.992;23.912;2023-03-01T11:59:03;3.40;99.90
40153;DHT22;26371;56.992;23.912;2023-03-01T12:01:41;3.40;99.90
40153;DHT22;26371;56.992;23.912;2023-03-01T12:04:36;3.40;99.90
40153;DHT22;26371;56.992;23.912;2023-03-01T12:07:16;3.40;99.90
40153;DHT22;26371;56.992;23.912;2023-03-01T12:09:59;3.40;99.90
40153;DHT22;26371;56.992;23.912;2023-03-01T12:12:34;3.40;99.90
40153;DHT22;26371;56.992;23.912;2023-03-01T12:15:39;3.40;99.90
40153;DHT22;26371;56.992;23.912;2023-03-01T12:18:37;3.30;99.90
40153;DHT22;26371;56.992;23.912;2023-03-01T12:21:21;3.40;99.90
40153;DHT22;26371;56.992;23.912;2023-03-01T12:24:16;3.40;99.90
40153;DHT22;26371;56.992;23.912;2023-03-01T12:26:58;3.40;99.90
40153;DHT22;26371;56.992;23.912;2023-03-01T12:29:36;3.40;99.90
40153;DHT22;26371;56.992;23.912;2023-03-01T12:32:26;3.40;99.90
40153;DHT22;26371;56.992;23.912;2023-03-01T12:35:16;3.50;99.90
40153;DHT22;26371;56.992;23.912;2023-03-01T12:37:55;3.50;99.90
40153;DHT22;26371;56.992;23.912;2023-03-01T12:41:00;3.50;99.90
40153;DHT22;26371;56.992;23.912;2023-03-01T12:43:40;3.50;99.90
40153;DHT22;26371;56.992;23.912;2023-03-01T12:46:24;3.50;99.90
40153;DHT22;26371;56.992;23.912;2023-03-01T12:49:04;3.50;99.90
40153;DHT22;26371;56.992;23.912;2023-03-01T12:51:37;3.50;99.90
40153;DHT22;26371;56.992;23.912;2023-03-01T12:54:14;3.50;99.90
40153;DHT22;26371;56.992;23.912;2023-03-01T12:56:44;3.50;99.90
40153;DHT22;26371;56.992;23.912;2023-03-01T12:59:23;3.60;99.90
40153;DHT22;26371;56.992;23.912;2023-03-01T13:01:59;3.70;99.90
40153;DHT22;26371;56.992;23.912;2023-03-01T13:04:38;3.60;99.90
40153;DHT22;26371;56.992;23.912;2023-03-01T13:07:18;3.60;99.90
40153;DHT22;26371;56.992;23.912;2023-03-01T13:09:54;3.70;99.90
40153;DHT22;26371;56.992;23.912;2023-03-01T13:12:52;3.70;99.90
40153;DHT22;26371;56.992;23.912;2023-03-01T13:15:33;3.70;99.90
40153;DHT22;26371;56.992;23.912;2023-03-01T13:18:26;3.70;99.90
40153;DHT22;26371;56.992;23.912;2023-03-01T13:20:55;3.70;99.90
40153;DHT22;26371;56.992;23.912;2023-03-01T13:23:28;3.70;99.90
40153;DHT22;26371;56.992;23.912;2023-03-01T13:26:14;3.60;99.90
40153;DHT22;26371;56.992;23.912;2023-03-01T13:28:56;3.60;99.90
40153;DHT22;26371;56.992;23.912;2023-03-01T13:32:00;3.50;99.90
40153;DHT22;26371;56.992;23.912;2023-03-01T13:34:48;3.40;99.90
40153;DHT22;26371;56.992;23.912;2023-03-01T13:37:23;3.40;99.90
40153;DHT22;26371;56.992;23.912;2023-03-01T13:39:54;3.30;99.90
40153;DHT22;26371;56.992;23.912;2023-03-01T13:42:40;3.30;99.90
40153;DHT22;26371;56.992;23.912;2023-03-01T13:45:25;3.30;99.90
40153;DHT22;26371;56.992;23.912;2023-03-01T13:48:04;3.20;99.90
40153;DHT22;26371;56.992;23.912;2023-03-01T13:50:43;3.20;99.90
40153;DHT22;26371;56.992;23.912;2023-03-01T13:53:17;3.20;99.90
40153;DHT22;26371;56.992;23.912;2023-03-01T13:55:50;3.20;99.90
40153;DHT22;26371;56.992;23.912;2023-03-01T13:58:23;3.20;99.90
40153;DHT22;26371;56.992;23.912;2023-03-01T14:00:57;3.20;99.90
40153;DHT22;26371;56.992;23.912;2023-03-01T14:03:26;3.10;99.90
40153;DHT22;26371;56.992;23.912;2023-03-01T14:06:02;3.10;99.90
40153;DHT22;26371;56.992;23.912;2023-03-01T14:08:43;3.10;99.90
40153;DHT22;26371;56.992;23.912;2023-03-01T14:11:37;3.10;99.90
40153;DHT22;26371;56.992;23.912;2023-03-01T14:14:23;3.00;99.90
40153;DHT22;26371;56.992;23.912;2023-03-01T14:17:04;3.00;99.90
40153;DHT22;26371;56.992;23.912;2023-03-01T14:19:35;3.30;99.90
40153;DHT22;26371;56.992;23.912;2023-03-01T14:22:14;3.00;99.90
40153;DHT22;26371;56.992;23.912;2023-03-01T14:24:48;2.90;99.90
40153;DHT22;26371;56.992;23.912;2023-03-01T14:27:19;3.10;99.90
40153;DHT22;26371;56.992;23.912;2023-03-01T14:32:31;2.80;99.90
40153;DHT22;26371;56.992;23.912;2023-03-01T14:35:00;2.90;99.90
40153;DHT22;26371;56.992;23.912;2023-03-01T14:37:32;2.80;99.90
40153;DHT22;26371;56.992;23.912;2023-03-01T14:40:03;2.80;99.90
40153;DHT22;26371;56.992;23.912;2023-03-01T15:00:07;2.60;99.90
40153;DHT22;26371;56.992;23.912;2023-03-01T15:02:37;2.40;99.90
40153;DHT22;26371;56.992;23.912;2023-03-01T15:05:08;2.40;99.90
40153;DHT22;26371;56.992;23.912;2023-03-01T15:07:40;2.30;99.90
40153;DHT22;26371;56.992;23.912;2023-03-01T15:10:20;2.30;99.90
40153;DHT22;26371;56.992;23.912;2023-03-01T15:12:51;2.20;99.90
40153;DHT22;26371;56.992;23.912;2023-03-01T15:15:38;2.20;99.90
40153;DHT22;26371;56.992;23.912;2023-03-01T15:18:18;2.20;99.90
40153;DHT22;26371;56.992;23.912;2023-03-01T15:20:47;2.20;99.90
40153;DHT22;26371;56.992;23.912;2023-03-01T15:23:21;2.20;99.90
40153;DHT22;26371;56.992;23.912;2023-03-01T15:25:51;2.10;99.90
40153;DHT22;26371;56.992;23.912;2023-03-01T15:28:27;2.10;99.90
40153;DHT22;26371;56.992;23.912;2023-03-01T15:31:00;2.10;99.90
40153;DHT22;26371;56.992;23.912;2023-03-01T15:33:33;2.10;99.90
40153;DHT22;26371;56.992;23.912;2023-03-01T15:36:04;2.00;99.90
40153;DHT22;26371;56.992;23.912;2023-03-01T15:38:54;2.00;99.90
40153;DHT22;26371;56.992;23.912;2023-03-01T15:41:26;2.00;99.90
40153;DHT22;26371;56.992;23.912;2023-03-01T15:44:00;2.00;99.90
40153;DHT22;26371;56.992;23.912;2023-03-01T15:46:31;2.00;99.90
40153;DHT22;26371;56.992;23.912;2023-03-01T15:49:03;2.00;99.90
40153;DHT22;26371;56.992;23.912;2023-03-01T15:51:34;2.00;99.90
40153;DHT22;26371;56.992;23.912;2023-03-01T15:54:05;2.00;99.90
40153;DHT22;26371;56.992;23.912;2023-03-01T15:56:35;2.00;99.90
40153;DHT22;26371;56.992;23.912;2023-03-01T15:59:05;2.00;99.90
40153;DHT22;26371;56.992;23.912;2023-03-01T16:01:34;2.10;99.90
40153;DHT22;26371;56.992;23.912;2023-03-01T16:04:03;2.10;99.90
40153;DHT22;26371;56.992;23.912;2023-03-01T16:06:32;2.10;99.90
40153;DHT22;26371;56.992;23.912;2023-03-01T16:09:01;2.10;99.90
40153;DHT22;26371;56.992;23.912;2023-03-01T16:11:30;2.20;99.90
40153;DHT22;26371;56.992;23.912;2023-03-01T16:13:59;2.20;99.90
40153;DHT22;26371;56.992;23.912;2023-03-01T16:16:30;2.20;99.90
40153;DHT22;26371;56.992;23.912;2023-03-01T16:18:59;2.20;99.90
40153;DHT22;26371;56.992;23.912;2023-03-01T16:21:28;2.20;99.90
40153;DHT22;26371;56.992;23.912;2023-03-01T16:23:57;2.20;99.90
40153;DHT22;26371;56.992;23.912;2023-03-01T16:26:26;2.20;99.90
40153;DHT22;26371;56.992;23.912;2023-03-01T16:28:56;2.20;99.90
40153;DHT22;26371;56.992;23.912;2023-03-01T16:31:25;2.20;99.90